sensor_id;sensor_type;location;lat;lon;timestamp;P1;durP1;ratioP1;P2;durP2;ratioP2
70303;SDS011;57712;48.752;11.348;2022-11-15T00:00:51;23.10;;;14.88;;
70303;SDS011;57712;48.752;11.348;2022-11-15T00:03:19;24.77;;;14.23;;
70303;SDS011;57712;48.752;11.348;2022-11-15T00:05:47;28.17;;;13.77;;
70303;SDS011;57712;48.752;11.348;2022-11-15T00:08:14;25.35;;;14.00;;
70303;SDS011;57712;48.752;11.348;2022-11-15T00:10:41;27.80;;;14.40;;
70303;SDS011;57712;48.752;11.348;2022-11-15T00:13:10;26.05;;;14.13;;
70303;SDS011;57712;48.752;11.348;2022-11-15T00:15:39;26.88;;;14.45;;
70303;SDS011;57712;48.752;11.348;2022-11-15T00:18:10;25.52;;;13.55;;
70303;SDS011;57712;48.752;11.348;2022-11-15T00:20:38;33.40;;;14.45;;
70303;SDS011;57712;48.752;11.348;2022-11-15T00:23:05;27.77;;;14.23;;
70303;SDS011;57712;48.752;11.348;2022-11-15T00:25:32;24.23;;;13.95;;
70303;SDS011;57712;48.752;11.348;2022-11-15T00:27:59;22.35;;;12.55;;
70303;SDS011;57712;48.752;11.348;2022-11-15T00:30:27;28.10;;;13.85;;
70303;SDS011;57712;48.752;11.348;2022-11-15T00:32:54;25.77;;;14.15;;
70303;SDS011;57712;48.752;11.348;2022-11-15T00:35:21;26.47;;;13.57;;
70303;SDS011;57712;48.752;11.348;2022-11-15T00:37:48;24.27;;;13.00;;
70303;SDS011;57712;48.752;11.348;2022-11-15T00:40:14;23.50;;;12.25;;
70303;SDS011;57712;48.752;11.348;2022-11-15T00:42:41;23.10;;;13.25;;
70303;SDS011;57712;48.752;11.348;2022-11-15T00:45:08;24.65;;;13.57;;
70303;SDS011;57712;48.752;11.348;2022-11-15T00:47:35;24.07;;;12.50;;
70303;SDS011;57712;48.752;11.348;2022-11-15T00:50:02;23.95;;;12.45;;
70303;SDS011;57712;48.752;11.348;2022-11-15T00:52:28;23.17;;;12.05;;
70303;SDS011;57712;48.752;11.348;2022-11-15T00:54:55;21.77;;;11.75;;
70303;SDS011;57712;48.752;11.348;2022-11-15T00:57:21;22.23;;;11.70;;
70303;SDS011;57712;48.752;11.348;2022-11-15T00:59:48;22.33;;;11.77;;
70303;SDS011;57712;48.752;11.348;2022-11-15T01:02:15;22.23;;;12.48;;
70303;SDS011;57712;48.752;11.348;2022-11-15T01:04:41;19.42;;;10.98;;
70303;SDS011;57712;48.752;11.348;2022-11-15T01:07:07;18.98;;;10.95;;
70303;SDS011;57712;48.752;11.348;2022-11-15T01:09:34;23.55;;;12.35;;
70303;SDS011;57712;48.752;11.348;2022-11-15T01:12:00;21.00;;;11.53;;
70303;SDS011;57712;48.752;11.348;2022-11-15T01:14:27;23.48;;;11.50;;
70303;SDS011;57712;48.752;11.348;2022-11-15T01:16:53;20.55;;;11.73;;
70303;SDS011;57712;48.752;11.348;2022-11-15T01:19:20;20.70;;;11.75;;
70303;SDS011;57712;48.752;11.348;2022-11-15T01:21:50;21.20;;;11.30;;
70303;SDS011;57712;48.752;11.348;2022-11-15T01:24:17;22.10;;;11.63;;
70303;SDS011;57712;48.752;11.348;2022-11-15T01:26:43;22.80;;;11.45;;
70303;SDS011;57712;48.752;11.348;2022-11-15T01:29:10;22.40;;;11.05;;
70303;SDS011;57712;48.752;11.348;2022-11-15T01:31:36;22.10;;;10.55;;
70303;SDS011;57712;48.752;11.348;2022-11-15T01:34:03;20.65;;;11.43;;
70303;SDS011;57712;48.752;11.348;2022-11-15T01:36:29;26.63;;;11.50;;
70303;SDS011;57712;48.752;11.348;2022-11-15T01:38:56;19.95;;;10.30;;
70303;SDS011;57712;48.752;11.348;2022-11-15T01:41:25;19.98;;;11.57;;
70303;SDS011;57712;48.752;11.348;2022-11-15T01:43:55;23.45;;;12.27;;
70303;SDS011;57712;48.752;11.348;2022-11-15T01:46:25;19.55;;;11.27;;
70303;SDS011;57712;48.752;11.348;2022-11-15T01:48:56;20.10;;;11.30;;
70303;SDS011;57712;48.752;11.348;2022-11-15T01:51:26;21.73;;;12.35;;
70303;SDS011;57712;48.752;11.348;2022-11-15T01:53:56;24.05;;;12.18;;
70303;SDS011;57712;48.752;11.348;2022-11-15T01:56:28;21.10;;;11.27;;
70303;SDS011;57712;48.752;11.348;2022-11-15T01:58:58;20.00;;;10.73;;
70303;SDS011;57712;48.752;11.348;2022-11-15T02:01:28;18.83;;;11.00;;
70303;SDS011;57712;48.752;11.348;2022-11-15T02:03:59;20.55;;;10.32;;
70303;SDS011;57712;48.752;11.348;2022-11-15T02:06:29;20.70;;;11.38;;
70303;SDS011;57712;48.752;11.348;2022-11-15T02:08:57;20.48;;;11.05;;
70303;SDS011;57712;48.752;11.348;2022-11-15T02:11:24;20.02;;;11.00;;
70303;SDS011;57712;48.752;11.348;2022-11-15T02:13:51;17.93;;;10.30;;
70303;SDS011;57712;48.752;11.348;2022-11-15T02:16:41;21.65;;;10.63;;
70303;SDS011;57712;48.752;11.348;2022-11-15T02:19:20;19.02;;;11.07;;
70303;SDS011;57712;48.752;11.348;2022-11-15T02:33:16;24.92;;;12.00;;
70303;SDS011;57712;48.752;11.348;2022-11-15T02:39:03;21.65;;;11.00;;
70303;SDS011;57712;48.752;11.348;2022-11-15T02:41:39;20.40;;;10.63;;
70303;SDS011;57712;48.752;11.348;2022-11-15T02:44:16;21.48;;;10.90;;
70303;SDS011;57712;48.752;11.348;2022-11-15T02:46:50;21.83;;;10.73;;
70303;SDS011;57712;48.752;11.348;2022-11-15T02:49:39;21.70;;;11.05;;
70303;SDS011;57712;48.752;11.348;2022-11-15T02:52:30;19.98;;;10.60;;
70303;SDS011;57712;48.752;11.348;2022-11-15T02:54:57;20.00;;;10.63;;
70303;SDS011;57712;48.752;11.348;2022-11-15T03:00:05;18.52;;;10.88;;
70303;SDS011;57712;48.752;11.348;2022-11-15T03:13:31;17.92;;;9.63;;
70303;SDS011;57712;48.752;11.348;2022-11-15T03:16:08;17.80;;;10.10;;
70303;SDS011;57712;48.752;11.348;2022-11-15T03:18:41;18.27;;;9.65;;
70303;SDS011;57712;48.752;11.348;2022-11-15T03:21:11;21.55;;;10.45;;
70303;SDS011;57712;48.752;11.348;2022-11-15T03:23:40;18.70;;;9.68;;
70303;SDS011;57712;48.752;11.348;2022-11-15T03:26:08;17.30;;;9.40;;
70303;SDS011;57712;48.752;11.348;2022-11-15T03:28:39;17.02;;;9.25;;
70303;SDS011;57712;48.752;11.348;2022-11-15T03:31:10;17.48;;;9.48;;
70303;SDS011;57712;48.752;11.348;2022-11-15T03:33:59;16.95;;;8.68;;
70303;SDS011;57712;48.752;11.348;2022-11-15T03:36:28;17.25;;;8.98;;
70303;SDS011;57712;48.752;11.348;2022-11-15T03:38:59;17.48;;;9.07;;
70303;SDS011;57712;48.752;11.348;2022-11-15T03:41:29;16.67;;;8.68;;
70303;SDS011;57712;48.752;11.348;2022-11-15T03:44:04;16.85;;;8.85;;
70303;SDS011;57712;48.752;11.348;2022-11-15T03:47:32;16.23;;;8.53;;
70303;SDS011;57712;48.752;11.348;2022-11-15T03:49:44;19.60;;;9.93;;
70303;SDS011;57712;48.752;11.348;2022-11-15T03:52:17;18.77;;;9.65;;
70303;SDS011;57712;48.752;11.348;2022-11-15T03:54:49;18.33;;;9.35;;
70303;SDS011;57712;48.752;11.348;2022-11-15T03:57:18;19.08;;;10.73;;
70303;SDS011;57712;48.752;11.348;2022-11-15T03:59:44;20.15;;;11.20;;
70303;SDS011;57712;48.752;11.348;2022-11-15T04:02:11;20.55;;;10.52;;
70303;SDS011;57712;48.752;11.348;2022-11-15T04:04:38;21.23;;;11.18;;
70303;SDS011;57712;48.752;11.348;2022-11-15T04:07:05;19.45;;;10.50;;
70303;SDS011;57712;48.752;11.348;2022-11-15T04:09:32;18.30;;;10.23;;
70303;SDS011;57712;48.752;11.348;2022-11-15T04:11:58;17.63;;;10.13;;
70303;SDS011;57712;48.752;11.348;2022-11-15T04:14:25;18.65;;;9.77;;
70303;SDS011;57712;48.752;11.348;2022-11-15T04:16:51;18.80;;;9.75;;
70303;SDS011;57712;48.752;11.348;2022-11-15T04:19:18;17.05;;;10.13;;
70303;SDS011;57712;48.752;11.348;2022-11-15T04:22:03;18.83;;;9.95;;
70303;SDS011;57712;48.752;11.348;2022-11-15T04:24:48;20.35;;;10.85;;
70303;SDS011;57712;48.752;11.348;2022-11-15T04:27:14;18.55;;;10.73;;
70303;SDS011;57712;48.752;11.348;2022-11-15T04:29:41;19.77;;;11.45;;
70303;SDS011;57712;48.752;11.348;2022-11-15T04:32:07;20.90;;;10.60;;
70303;SDS011;57712;48.752;11.348;2022-11-15T04:34:34;19.25;;;10.90;;
70303;SDS011;57712;48.752;11.348;2022-11-15T04:37:01;17.53;;;9.87;;
70303;SDS011;57712;48.752;11.348;2022-11-15T04:39:40;16.90;;;9.40;;
70303;SDS011;57712;48.752;11.348;2022-11-15T04:42:07;19.17;;;10.00;;
70303;SDS011;57712;48.752;11.348;2022-11-15T04:44:34;18.05;;;9.55;;
70303;SDS011;57712;48.752;11.348;2022-11-15T04:47:01;18.60;;;9.73;;
70303;SDS011;57712;48.752;11.348;2022-11-15T04:49:28;18.58;;;9.20;;
70303;SDS011;57712;48.752;11.348;2022-11-15T04:51:55;17.02;;;10.05;;
70303;SDS011;57712;48.752;11.348;2022-11-15T04:54:21;18.02;;;9.68;;
70303;SDS011;57712;48.752;11.348;2022-11-15T04:56:47;19.45;;;10.05;;
70303;SDS011;57712;48.752;11.348;2022-11-15T04:59:14;18.02;;;10.10;;
70303;SDS011;57712;48.752;11.348;2022-11-15T05:01:40;16.80;;;9.10;;
70303;SDS011;57712;48.752;11.348;2022-11-15T05:04:10;17.50;;;9.40;;
70303;SDS011;57712;48.752;11.348;2022-11-15T05:06:46;17.90;;;9.00;;
70303;SDS011;57712;48.752;11.348;2022-11-15T05:09:14;16.88;;;9.30;;
70303;SDS011;57712;48.752;11.348;2022-11-15T05:11:40;18.67;;;10.50;;
70303;SDS011;57712;48.752;11.348;2022-11-15T05:14:07;20.60;;;11.07;;
70303;SDS011;57712;48.752;11.348;2022-11-15T05:16:34;20.00;;;10.70;;
70303;SDS011;57712;48.752;11.348;2022-11-15T05:19:00;18.63;;;11.02;;
70303;SDS011;57712;48.752;11.348;2022-11-15T05:21:27;19.83;;;10.13;;
70303;SDS011;57712;48.752;11.348;2022-11-15T05:23:53;17.58;;;9.40;;
70303;SDS011;57712;48.752;11.348;2022-11-15T05:26:20;17.67;;;10.37;;
70303;SDS011;57712;48.752;11.348;2022-11-15T05:28:46;17.10;;;9.70;;
70303;SDS011;57712;48.752;11.348;2022-11-15T05:31:14;18.20;;;9.98;;
70303;SDS011;57712;48.752;11.348;2022-11-15T05:33:42;17.80;;;9.30;;
70303;SDS011;57712;48.752;11.348;2022-11-15T05:38:36;17.38;;;10.18;;
70303;SDS011;57712;48.752;11.348;2022-11-15T05:41:03;17.65;;;8.60;;
70303;SDS011;57712;48.752;11.348;2022-11-15T05:43:31;17.60;;;9.30;;
70303;SDS011;57712;48.752;11.348;2022-11-15T05:46:02;15.55;;;8.60;;
70303;SDS011;57712;48.752;11.348;2022-11-15T05:48:31;19.10;;;10.65;;
70303;SDS011;57712;48.752;11.348;2022-11-15T05:51:00;16.50;;;9.80;;
70303;SDS011;57712;48.752;11.348;2022-11-15T05:53:29;17.45;;;9.70;;
70303;SDS011;57712;48.752;11.348;2022-11-15T05:55:56;18.52;;;9.32;;
70303;SDS011;57712;48.752;11.348;2022-11-15T05:58:23;18.42;;;10.93;;
70303;SDS011;57712;48.752;11.348;2022-11-15T06:00:49;17.98;;;9.77;;
70303;SDS011;57712;48.752;11.348;2022-11-15T06:03:16;16.17;;;9.27;;
70303;SDS011;57712;48.752;11.348;2022-11-15T06:05:43;16.60;;;9.23;;
70303;SDS011;57712;48.752;11.348;2022-11-15T06:08:09;16.55;;;8.95;;
70303;SDS011;57712;48.752;11.348;2022-11-15T06:10:35;18.20;;;9.98;;
70303;SDS011;57712;48.752;11.348;2022-11-15T06:13:03;17.73;;;9.30;;
70303;SDS011;57712;48.752;11.348;2022-11-15T06:15:31;20.00;;;10.20;;
70303;SDS011;57712;48.752;11.348;2022-11-15T06:17:59;17.67;;;9.35;;
70303;SDS011;57712;48.752;11.348;2022-11-15T06:20:27;20.98;;;9.85;;
70303;SDS011;57712;48.752;11.348;2022-11-15T06:23:01;19.92;;;9.52;;
70303;SDS011;57712;48.752;11.348;2022-11-15T06:25:29;20.95;;;10.15;;
70303;SDS011;57712;48.752;11.348;2022-11-15T06:27:57;21.30;;;10.20;;
70303;SDS011;57712;48.752;11.348;2022-11-15T06:30:25;19.33;;;10.65;;
70303;SDS011;57712;48.752;11.348;2022-11-15T06:32:58;18.92;;;10.18;;
70303;SDS011;57712;48.752;11.348;2022-11-15T06:35:26;18.85;;;10.00;;
70303;SDS011;57712;48.752;11.348;2022-11-15T06:37:53;17.70;;;9.95;;
70303;SDS011;57712;48.752;11.348;2022-11-15T06:40:20;19.63;;;10.53;;
70303;SDS011;57712;48.752;11.348;2022-11-15T06:42:47;18.48;;;10.40;;
70303;SDS011;57712;48.752;11.348;2022-11-15T06:45:13;18.55;;;10.38;;
70303;SDS011;57712;48.752;11.348;2022-11-15T06:47:46;19.58;;;10.80;;
70303;SDS011;57712;48.752;11.348;2022-11-15T06:50:13;22.63;;;10.73;;
70303;SDS011;57712;48.752;11.348;2022-11-15T06:52:40;16.70;;;9.17;;
70303;SDS011;57712;48.752;11.348;2022-11-15T06:55:06;18.65;;;10.23;;
70303;SDS011;57712;48.752;11.348;2022-11-15T06:57:34;18.35;;;9.55;;
70303;SDS011;57712;48.752;11.348;2022-11-15T07:00:03;17.40;;;8.90;;
70303;SDS011;57712;48.752;11.348;2022-11-15T07:02:30;19.40;;;10.00;;
70303;SDS011;57712;48.752;11.348;2022-11-15T07:04:57;18.95;;;9.95;;
70303;SDS011;57712;48.752;11.348;2022-11-15T07:07:23;22.08;;;11.18;;
70303;SDS011;57712;48.752;11.348;2022-11-15T07:09:49;20.92;;;11.43;;
70303;SDS011;57712;48.752;11.348;2022-11-15T07:12:16;22.85;;;11.88;;
70303;SDS011;57712;48.752;11.348;2022-11-15T07:14:42;24.30;;;13.65;;
70303;SDS011;57712;48.752;11.348;2022-11-15T07:17:09;29.60;;;14.50;;
70303;SDS011;57712;48.752;11.348;2022-11-15T07:19:35;28.00;;;15.82;;
70303;SDS011;57712;48.752;11.348;2022-11-15T07:22:02;27.30;;;15.85;;
70303;SDS011;57712;48.752;11.348;2022-11-15T07:24:28;26.10;;;15.15;;
70303;SDS011;57712;48.752;11.348;2022-11-15T07:26:55;24.08;;;14.20;;
70303;SDS011;57712;48.752;11.348;2022-11-15T07:29:21;21.77;;;12.07;;
70303;SDS011;57712;48.752;11.348;2022-11-15T07:31:49;20.75;;;11.60;;
70303;SDS011;57712;48.752;11.348;2022-11-15T07:34:16;18.77;;;10.73;;
70303;SDS011;57712;48.752;11.348;2022-11-15T07:36:43;18.35;;;10.13;;
70303;SDS011;57712;48.752;11.348;2022-11-15T07:39:09;17.92;;;9.60;;
70303;SDS011;57712;48.752;11.348;2022-11-15T07:41:36;16.57;;;8.83;;
70303;SDS011;57712;48.752;11.348;2022-11-15T07:44:02;16.20;;;8.18;;
70303;SDS011;57712;48.752;11.348;2022-11-15T07:46:29;16.60;;;8.45;;
70303;SDS011;57712;48.752;11.348;2022-11-15T07:48:55;17.13;;;8.93;;
70303;SDS011;57712;48.752;11.348;2022-11-15T07:51:22;17.70;;;10.77;;
70303;SDS011;57712;48.752;11.348;2022-11-15T07:53:48;20.33;;;10.40;;
70303;SDS011;57712;48.752;11.348;2022-11-15T07:56:15;24.38;;;13.10;;
70303;SDS011;57712;48.752;11.348;2022-11-15T07:58:41;24.27;;;12.32;;
70303;SDS011;57712;48.752;11.348;2022-11-15T08:01:09;22.45;;;12.00;;
70303;SDS011;57712;48.752;11.348;2022-11-15T08:03:38;22.10;;;12.48;;
70303;SDS011;57712;48.752;11.348;2022-11-15T08:06:05;21.20;;;11.77;;
70303;SDS011;57712;48.752;11.348;2022-11-15T08:08:31;20.98;;;12.73;;
70303;SDS011;57712;48.752;11.348;2022-11-15T08:10:58;22.50;;;11.52;;
70303;SDS011;57712;48.752;11.348;2022-11-15T08:13:25;21.77;;;11.20;;
70303;SDS011;57712;48.752;11.348;2022-11-15T08:15:51;18.45;;;10.15;;
70303;SDS011;57712;48.752;11.348;2022-11-15T08:18:22;17.73;;;10.57;;
70303;SDS011;57712;48.752;11.348;2022-11-15T08:20:50;18.10;;;10.98;;
70303;SDS011;57712;48.752;11.348;2022-11-15T08:23:17;18.27;;;11.75;;
70303;SDS011;57712;48.752;11.348;2022-11-15T08:25:43;20.27;;;11.68;;
70303;SDS011;57712;48.752;11.348;2022-11-15T08:28:10;21.35;;;10.70;;
70303;SDS011;57712;48.752;11.348;2022-11-15T08:30:38;18.27;;;11.20;;
70303;SDS011;57712;48.752;11.348;2022-11-15T08:33:11;18.65;;;11.13;;
70303;SDS011;57712;48.752;11.348;2022-11-15T08:35:39;19.23;;;10.63;;
70303;SDS011;57712;48.752;11.348;2022-11-15T08:38:07;17.48;;;10.10;;
70303;SDS011;57712;48.752;11.348;2022-11-15T08:40:33;18.73;;;11.45;;
70303;SDS011;57712;48.752;11.348;2022-11-15T08:43:00;17.07;;;9.97;;
70303;SDS011;57712;48.752;11.348;2022-11-15T08:45:29;18.92;;;10.63;;
70303;SDS011;57712;48.752;11.348;2022-11-15T08:47:56;15.43;;;9.90;;
70303;SDS011;57712;48.752;11.348;2022-11-15T08:50:23;19.23;;;10.88;;
70303;SDS011;57712;48.752;11.348;2022-11-15T08:52:49;18.05;;;10.40;;
70303;SDS011;57712;48.752;11.348;2022-11-15T08:55:16;15.90;;;10.27;;
70303;SDS011;57712;48.752;11.348;2022-11-15T08:57:43;18.35;;;10.40;;
70303;SDS011;57712;48.752;11.348;2022-11-15T09:00:10;19.25;;;11.15;;
70303;SDS011;57712;48.752;11.348;2022-11-15T09:02:38;20.23;;;11.73;;
70303;SDS011;57712;48.752;11.348;2022-11-15T09:05:05;22.67;;;12.27;;
70303;SDS011;57712;48.752;11.348;2022-11-15T09:07:32;22.00;;;12.33;;
70303;SDS011;57712;48.752;11.348;2022-11-15T09:09:59;19.52;;;12.10;;
70303;SDS011;57712;48.752;11.348;2022-11-15T09:12:26;23.35;;;12.25;;
70303;SDS011;57712;48.752;11.348;2022-11-15T09:14:52;20.95;;;12.05;;
70303;SDS011;57712;48.752;11.348;2022-11-15T09:17:19;22.73;;;12.82;;
70303;SDS011;57712;48.752;11.348;2022-11-15T09:19:50;17.87;;;11.10;;
70303;SDS011;57712;48.752;11.348;2022-11-15T09:22:16;18.25;;;11.73;;
70303;SDS011;57712;48.752;11.348;2022-11-15T09:24:43;18.40;;;11.02;;
70303;SDS011;57712;48.752;11.348;2022-11-15T09:27:09;19.40;;;11.80;;
70303;SDS011;57712;48.752;11.348;2022-11-15T09:29:36;17.63;;;11.23;;
70303;SDS011;57712;48.752;11.348;2022-11-15T09:32:02;18.97;;;11.23;;
70303;SDS011;57712;48.752;11.348;2022-11-15T09:34:28;18.48;;;10.32;;
70303;SDS011;57712;48.752;11.348;2022-11-15T09:36:55;17.00;;;10.43;;
70303;SDS011;57712;48.752;11.348;2022-11-15T09:39:22;15.43;;;9.27;;
70303;SDS011;57712;48.752;11.348;2022-11-15T09:50:08;13.60;;;8.27;;
70303;SDS011;57712;48.752;11.348;2022-11-15T09:52:39;13.13;;;7.57;;
70303;SDS011;57712;48.752;11.348;2022-11-15T09:55:10;13.63;;;8.23;;
70303;SDS011;57712;48.752;11.348;2022-11-15T09:57:45;12.53;;;8.10;;
70303;SDS011;57712;48.752;11.348;2022-11-15T10:00:19;13.27;;;8.32;;
70303;SDS011;57712;48.752;11.348;2022-11-15T10:03:12;11.45;;;6.97;;
70303;SDS011;57712;48.752;11.348;2022-11-15T10:05:42;13.05;;;8.02;;
70303;SDS011;57712;48.752;11.348;2022-11-15T10:08:25;12.27;;;7.40;;
70303;SDS011;57712;48.752;11.348;2022-11-15T10:10:57;11.70;;;7.20;;
70303;SDS011;57712;48.752;11.348;2022-11-15T10:13:46;12.27;;;7.57;;
70303;SDS011;57712;48.752;11.348;2022-11-15T10:16:26;12.50;;;8.00;;
70303;SDS011;57712;48.752;11.348;2022-11-15T10:24:47;11.47;;;6.27;;
70303;SDS011;57712;48.752;11.348;2022-11-15T10:27:18;23.50;;;8.10;;
70303;SDS011;57712;48.752;11.348;2022-11-15T10:29:47;19.95;;;7.03;;
70303;SDS011;57712;48.752;11.348;2022-11-15T10:32:16;12.30;;;6.45;;
70303;SDS011;57712;48.752;11.348;2022-11-15T10:34:44;17.10;;;8.27;;
70303;SDS011;57712;48.752;11.348;2022-11-15T10:37:11;13.97;;;8.10;;
70303;SDS011;57712;48.752;11.348;2022-11-15T10:39:38;12.80;;;7.35;;
70303;SDS011;57712;48.752;11.348;2022-11-15T10:44:53;12.30;;;7.15;;
70303;SDS011;57712;48.752;11.348;2022-11-15T10:47:22;11.48;;;6.75;;
70303;SDS011;57712;48.752;11.348;2022-11-15T10:50:04;12.03;;;6.57;;
70303;SDS011;57712;48.752;11.348;2022-11-15T10:52:52;11.75;;;6.57;;
70303;SDS011;57712;48.752;11.348;2022-11-15T10:55:21;11.32;;;6.32;;
70303;SDS011;57712;48.752;11.348;2022-11-15T10:57:53;11.00;;;6.00;;
70303;SDS011;57712;48.752;11.348;2022-11-15T11:05:49;10.95;;;6.22;;
70303;SDS011;57712;48.752;11.348;2022-11-15T11:08:30;11.73;;;6.45;;
70303;SDS011;57712;48.752;11.348;2022-11-15T11:10:59;10.98;;;6.00;;
70303;SDS011;57712;48.752;11.348;2022-11-15T11:13:30;10.10;;;6.00;;
70303;SDS011;57712;48.752;11.348;2022-11-15T11:16:16;10.17;;;6.07;;
70303;SDS011;57712;48.752;11.348;2022-11-15T11:24:12;10.20;;;5.95;;
70303;SDS011;57712;48.752;11.348;2022-11-15T11:27:12;12.30;;;5.90;;
70303;SDS011;57712;48.752;11.348;2022-11-15T11:35:22;9.02;;;5.75;;
70303;SDS011;57712;48.752;11.348;2022-11-15T11:37:55;9.23;;;5.97;;
70303;SDS011;57712;48.752;11.348;2022-11-15T11:40:59;10.18;;;5.88;;
70303;SDS011;57712;48.752;11.348;2022-11-15T11:43:45;10.40;;;5.90;;
70303;SDS011;57712;48.752;11.348;2022-11-15T11:51:27;10.05;;;6.32;;
70303;SDS011;57712;48.752;11.348;2022-11-15T11:54:00;9.05;;;5.60;;
70303;SDS011;57712;48.752;11.348;2022-11-15T11:56:38;10.07;;;5.80;;
70303;SDS011;57712;48.752;11.348;2022-11-15T11:59:31;12.32;;;5.95;;
70303;SDS011;57712;48.752;11.348;2022-11-15T12:02:16;10.07;;;6.03;;
70303;SDS011;57712;48.752;11.348;2022-11-15T12:04:51;9.95;;;6.75;;
70303;SDS011;57712;48.752;11.348;2022-11-15T12:07:24;9.38;;;6.78;;
70303;SDS011;57712;48.752;11.348;2022-11-15T12:09:57;10.20;;;6.30;;
70303;SDS011;57712;48.752;11.348;2022-11-15T12:12:30;10.55;;;6.90;;
70303;SDS011;57712;48.752;11.348;2022-11-15T12:15:10;10.75;;;6.78;;
70303;SDS011;57712;48.752;11.348;2022-11-15T12:17:42;9.57;;;6.32;;
70303;SDS011;57712;48.752;11.348;2022-11-15T12:25:16;9.65;;;6.50;;
70303;SDS011;57712;48.752;11.348;2022-11-15T12:30:31;8.63;;;5.50;;
70303;SDS011;57712;48.752;11.348;2022-11-15T12:33:15;9.35;;;5.47;;
70303;SDS011;57712;48.752;11.348;2022-11-15T12:39:00;8.40;;;5.10;;
70303;SDS011;57712;48.752;11.348;2022-11-15T12:41:36;10.07;;;6.22;;
70303;SDS011;57712;48.752;11.348;2022-11-15T12:44:04;9.60;;;6.10;;
70303;SDS011;57712;48.752;11.348;2022-11-15T12:59:48;10.10;;;5.88;;
70303;SDS011;57712;48.752;11.348;2022-11-15T13:02:31;9.30;;;6.23;;
70303;SDS011;57712;48.752;11.348;2022-11-15T13:13:07;9.00;;;6.10;;
70303;SDS011;57712;48.752;11.348;2022-11-15T13:15:39;8.40;;;5.37;;
70303;SDS011;57712;48.752;11.348;2022-11-15T13:18:39;8.38;;;5.55;;
70303;SDS011;57712;48.752;11.348;2022-11-15T13:21:19;9.77;;;5.20;;
70303;SDS011;57712;48.752;11.348;2022-11-15T13:24:10;8.38;;;4.95;;
70303;SDS011;57712;48.752;11.348;2022-11-15T13:26:39;9.05;;;5.80;;
70303;SDS011;57712;48.752;11.348;2022-11-15T13:29:14;8.13;;;5.20;;
70303;SDS011;57712;48.752;11.348;2022-11-15T13:31:42;8.80;;;5.70;;
70303;SDS011;57712;48.752;11.348;2022-11-15T13:34:18;8.07;;;4.78;;
70303;SDS011;57712;48.752;11.348;2022-11-15T13:39:49;13.27;;;7.63;;
70303;SDS011;57712;48.752;11.348;2022-11-15T13:42:17;12.07;;;7.10;;
70303;SDS011;57712;48.752;11.348;2022-11-15T13:44:55;12.43;;;7.43;;
70303;SDS011;57712;48.752;11.348;2022-11-15T13:47:27;12.25;;;6.80;;
70303;SDS011;57712;48.752;11.348;2022-11-15T13:49:58;11.73;;;6.25;;
70303;SDS011;57712;48.752;11.348;2022-11-15T13:52:27;11.75;;;6.72;;
70303;SDS011;57712;48.752;11.348;2022-11-15T13:55:02;11.60;;;6.73;;
70303;SDS011;57712;48.752;11.348;2022-11-15T13:57:39;13.02;;;6.30;;
70303;SDS011;57712;48.752;11.348;2022-11-15T14:00:25;11.18;;;6.30;;
70303;SDS011;57712;48.752;11.348;2022-11-15T14:03:22;9.88;;;5.78;;
70303;SDS011;57712;48.752;11.348;2022-11-15T14:06:05;11.57;;;6.25;;
70303;SDS011;57712;48.752;11.348;2022-11-15T14:08:34;12.40;;;6.40;;
70303;SDS011;57712;48.752;11.348;2022-11-15T14:11:06;12.20;;;6.38;;
70303;SDS011;57712;48.752;11.348;2022-11-15T14:13:59;15.30;;;8.15;;
70303;SDS011;57712;48.752;11.348;2022-11-15T14:17:04;13.23;;;7.53;;
70303;SDS011;57712;48.752;11.348;2022-11-15T14:22:07;11.33;;;6.60;;
70303;SDS011;57712;48.752;11.348;2022-11-15T14:24:43;14.18;;;7.10;;
70303;SDS011;57712;48.752;11.348;2022-11-15T14:27:27;13.13;;;7.28;;
70303;SDS011;57712;48.752;11.348;2022-11-15T14:29:55;11.88;;;7.18;;
70303;SDS011;57712;48.752;11.348;2022-11-15T14:32:22;12.25;;;7.43;;
70303;SDS011;57712;48.752;11.348;2022-11-15T14:34:54;12.53;;;7.10;;
70303;SDS011;57712;48.752;11.348;2022-11-15T14:37:26;11.60;;;6.85;;
70303;SDS011;57712;48.752;11.348;2022-11-15T14:39:54;13.30;;;6.75;;
70303;SDS011;57712;48.752;11.348;2022-11-15T14:42:21;12.30;;;7.30;;
70303;SDS011;57712;48.752;11.348;2022-11-15T14:44:49;12.50;;;6.47;;
70303;SDS011;57712;48.752;11.348;2022-11-15T14:47:16;12.07;;;6.67;;
70303;SDS011;57712;48.752;11.348;2022-11-15T14:49:42;12.82;;;6.85;;
70303;SDS011;57712;48.752;11.348;2022-11-15T14:54:58;16.55;;;7.00;;
70303;SDS011;57712;48.752;11.348;2022-11-15T14:57:25;14.52;;;6.63;;
70303;SDS011;57712;48.752;11.348;2022-11-15T14:59:51;13.13;;;7.30;;
70303;SDS011;57712;48.752;11.348;2022-11-15T15:02:22;16.02;;;7.82;;
70303;SDS011;57712;48.752;11.348;2022-11-15T15:04:50;30.52;;;18.52;;
70303;SDS011;57712;48.752;11.348;2022-11-15T15:07:18;18.00;;;10.77;;
70303;SDS011;57712;48.752;11.348;2022-11-15T15:09:45;20.15;;;11.40;;
70303;SDS011;57712;48.752;11.348;2022-11-15T15:12:19;19.67;;;11.10;;
70303;SDS011;57712;48.752;11.348;2022-11-15T15:14:49;27.02;;;15.07;;
70303;SDS011;57712;48.752;11.348;2022-11-15T15:17:16;21.88;;;12.93;;
70303;SDS011;57712;48.752;11.348;2022-11-15T15:19:43;19.48;;;12.20;;
70303;SDS011;57712;48.752;11.348;2022-11-15T15:22:13;27.85;;;13.07;;
70303;SDS011;57712;48.752;11.348;2022-11-15T15:24:42;19.30;;;11.03;;
70303;SDS011;57712;48.752;11.348;2022-11-15T15:27:09;23.15;;;12.10;;
70303;SDS011;57712;48.752;11.348;2022-11-15T15:29:36;23.08;;;12.77;;
70303;SDS011;57712;48.752;11.348;2022-11-15T15:32:02;26.75;;;14.00;;
70303;SDS011;57712;48.752;11.348;2022-11-15T15:34:29;24.85;;;13.88;;
70303;SDS011;57712;48.752;11.348;2022-11-15T15:37:09;18.37;;;10.37;;
70303;SDS011;57712;48.752;11.348;2022-11-15T15:39:54;17.98;;;9.80;;
70303;SDS011;57712;48.752;11.348;2022-11-15T15:42:22;23.42;;;11.48;;
70303;SDS011;57712;48.752;11.348;2022-11-15T15:44:49;23.23;;;11.40;;
70303;SDS011;57712;48.752;11.348;2022-11-15T15:47:18;23.63;;;11.90;;
70303;SDS011;57712;48.752;11.348;2022-11-15T15:49:46;22.57;;;11.43;;
70303;SDS011;57712;48.752;11.348;2022-11-15T15:52:14;23.50;;;12.38;;
70303;SDS011;57712;48.752;11.348;2022-11-15T15:54:41;22.92;;;12.43;;
70303;SDS011;57712;48.752;11.348;2022-11-15T15:57:08;23.23;;;11.50;;
70303;SDS011;57712;48.752;11.348;2022-11-15T15:59:37;21.00;;;12.18;;
70303;SDS011;57712;48.752;11.348;2022-11-15T16:02:04;22.73;;;11.90;;
70303;SDS011;57712;48.752;11.348;2022-11-15T16:04:31;23.20;;;12.10;;
70303;SDS011;57712;48.752;11.348;2022-11-15T16:06:58;22.33;;;11.80;;
70303;SDS011;57712;48.752;11.348;2022-11-15T16:09:26;20.25;;;10.55;;
70303;SDS011;57712;48.752;11.348;2022-11-15T16:12:11;21.90;;;11.23;;
70303;SDS011;57712;48.752;11.348;2022-11-15T16:14:38;20.80;;;10.53;;
70303;SDS011;57712;48.752;11.348;2022-11-15T16:17:04;17.80;;;9.82;;
70303;SDS011;57712;48.752;11.348;2022-11-15T16:19:31;18.90;;;10.07;;
70303;SDS011;57712;48.752;11.348;2022-11-15T16:21:57;19.23;;;10.63;;
70303;SDS011;57712;48.752;11.348;2022-11-15T16:24:24;19.70;;;10.23;;